sensor_id;sensor_type;location;lat;lon;timestamp;pressure;altitude;pressure_sealevel;temperature;humidity
68965;BME280;56017;48.680;8.998;2023-02-22T06:27:52;96430;;;0.6;80.5
68965;BME280;56017;48.680;8.998;2023-02-22T06:37:55;96430;;;2.3;78.5
68965;BME280;56017;48.680;8.998;2023-02-22T06:47:58;96440;;;3.2;77
68965;BME280;56017;48.680;8.998;2023-02-22T06:55:43;96450;;;3.2;77
68965;BME280;56017;48.680;8.998;2023-02-22T06:58:26;96440;;;3.2;77
68965;BME280;56017;48.680;8.998;2023-02-22T07:00:50;96450;;;3.4;77
68965;BME280;56017;48.680;8.998;2023-02-22T07:03:20;96440;;;3.5;76.5
68965;BME280;56017;48.680;8.998;2023-02-22T07:05:44;96440;;;3.6;76.5
68965;BME280;56017;48.680;8.998;2023-02-22T07:08:14;96440;;;3.7;76.5
68965;BME280;56017;48.680;8.998;2023-02-22T07:10:44;96440;;;3.8;76.5
68965;BME280;56017;48.680;8.998;2023-02-22T07:13:08;96440;;;4;76
68965;BME280;56017;48.680;8.998;2023-02-22T07:15:46;96440;;;4.2;75
68965;BME280;56017;48.680;8.998;2023-02-22T07:18:10;96440;;;4.3;75
68965;BME280;56017;48.680;8.998;2023-02-22T07:20:48;96440;;;4.4;75
68965;BME280;56017;48.680;8.998;2023-02-22T07:23:13;96440;;;4.5;75
68965;BME280;56017;48.680;8.998;2023-02-22T07:28:14;96450;;;4.7;76
68965;BME280;56017;48.680;8.998;2023-02-22T07:30:52;96450;;;4.9;76
68965;BME280;56017;48.680;8.998;2023-02-22T07:33:16;96450;;;5.2;75.5
68965;BME280;56017;48.680;8.998;2023-02-22T07:35:54;96440;;;5.5;75
68965;BME280;56017;48.680;8.998;2023-02-22T07:38:18;96440;;;5.7;75
68965;BME280;56017;48.680;8.998;2023-02-22T07:40:56;96440;;;5.8;75
68965;BME280;56017;48.680;8.998;2023-02-22T07:43:22;96440;;;6;75
68965;BME280;56017;48.680;8.998;2023-02-22T07:45:58;96440;;;6.2;75
68965;BME280;56017;48.680;8.998;2023-02-22T07:48:25;96440;;;6.3;75
68965;BME280;56017;48.680;8.998;2023-02-22T07:51:00;96440;;;6.4;75.5
68965;BME280;56017;48.680;8.998;2023-02-22T07:53:25;96440;;;6.5;75.5
68965;BME280;56017;48.680;8.998;2023-02-22T07:56:03;96440;;;6.7;75
68965;BME280;56017;48.680;8.998;2023-02-22T07:58:28;96440;;;6.9;74.5
68965;BME280;56017;48.680;8.998;2023-02-22T08:01:04;96440;;;7;74
68965;BME280;56017;48.680;8.998;2023-02-22T08:03:29;96440;;;7;74
68965;BME280;56017;48.680;8.998;2023-02-22T08:08:30;96440;;;7.1;74
68965;BME280;56017;48.680;8.998;2023-02-22T08:11:07;96440;;;7.1;74.5
68965;BME280;56017;48.680;8.998;2023-02-22T08:13:32;96450;;;7.1;74.5
68965;BME280;56017;48.680;8.998;2023-02-22T08:16:09;96440;;;7.2;74
68965;BME280;56017;48.680;8.998;2023-02-22T08:18:34;96450;;;7.1;74.5
68965;BME280;56017;48.680;8.998;2023-02-22T08:21:11;96450;;;7.1;74.5
68965;BME280;56017;48.680;8.998;2023-02-22T08:23:36;96440;;;7.1;74.5
68965;BME280;56017;48.680;8.998;2023-02-22T08:26:13;96450;;;7.1;75
68965;BME280;56017;48.680;8.998;2023-02-22T08:28:38;96440;;;7.1;74.5
68965;BME280;56017;48.680;8.998;2023-02-22T08:31:09;96450;;;7.1;75
68965;BME280;56017;48.680;8.998;2023-02-22T08:33:40;96450;;;7.2;75
68965;BME280;56017;48.680;8.998;2023-02-22T08:36:17;96450;;;7.3;75
68965;BME280;56017;48.680;8.998;2023-02-22T08:38:42;96450;;;7.5;75
68965;BME280;56017;48.680;8.998;2023-02-22T08:41:19;96440;;;7.5;75
68965;BME280;56017;48.680;8.998;2023-02-22T08:43:44;96440;;;7.7;75.5
68965;BME280;56017;48.680;8.998;2023-02-22T08:46:21;96450;;;7.8;75
68965;BME280;56017;48.680;8.998;2023-02-22T08:48:49;96440;;;8;75
68965;BME280;56017;48.680;8.998;2023-02-22T08:51:23;96440;;;8.1;75
68965;BME280;56017;48.680;8.998;2023-02-22T08:53:48;96440;;;8.4;75
68965;BME280;56017;48.680;8.998;2023-02-22T09:01:19;96430;;;9;75
68965;BME280;56017;48.680;8.998;2023-02-22T09:03:50;96430;;;9.2;75
68965;BME280;56017;48.680;8.998;2023-02-22T09:06:21;96430;;;9.5;75
68965;BME280;56017;48.680;8.998;2023-02-22T09:08:53;96430;;;9.7;74.5
68965;BME280;56017;48.680;8.998;2023-02-22T09:11:25;96430;;;9.9;74
68965;BME280;56017;48.680;8.998;2023-02-22T09:13:54;96430;;;10;74
68965;BME280;56017;48.680;8.998;2023-02-22T09:16:25;96420;;;10.2;74.5
68965;BME280;56017;48.680;8.998;2023-02-22T09:21:30;96430;;;10.6;74.5
68965;BME280;56017;48.680;8.998;2023-02-22T09:26:29;96420;;;11;74
68965;BME280;56017;48.680;8.998;2023-02-22T09:29:00;96410;;;11.2;73
68965;BME280;56017;48.680;8.998;2023-02-22T09:31:33;96410;;;11.3;73.5
68965;BME280;56017;48.680;8.998;2023-02-22T09:34:03;96420;;;11.5;73.5
68965;BME280;56017;48.680;8.998;2023-02-22T09:39:04;96410;;;11.9;73.5
68965;BME280;56017;48.680;8.998;2023-02-22T09:41:37;96410;;;12.1;73.5
68965;BME280;56017;48.680;8.998;2023-02-22T09:44:13;96410;;;12.3;73
68965;BME280;56017;48.680;8.998;2023-02-22T09:46:38;96410;;;12.4;73
68965;BME280;56017;48.680;8.998;2023-02-22T09:49:15;96410;;;13;72.5
68965;BME280;56017;48.680;8.998;2023-02-22T09:51:41;96400;;;13.8;71.5
68965;BME280;56017;48.680;8.998;2023-02-22T09:54:13;96400;;;14.4;71.5
68965;BME280;56017;48.680;8.998;2023-02-22T09:56:42;96390;;;14.8;71
68965;BME280;56017;48.680;8.998;2023-02-22T09:59:14;96390;;;15.2;71
68965;BME280;56017;48.680;8.998;2023-02-22T10:04:22;96390;;;16.2;71
68965;BME280;56017;48.680;8.998;2023-02-22T10:06:56;96390;;;16.4;71
68965;BME280;56017;48.680;8.998;2023-02-22T10:09:15;96390;;;16.6;70.5
68965;BME280;56017;48.680;8.998;2023-02-22T10:11:48;96390;;;16.5;71
68965;BME280;56017;48.680;8.998;2023-02-22T10:14:25;96390;;;16.6;72
68965;BME280;56017;48.680;8.998;2023-02-22T10:16:56;96390;;;16.5;72
68965;BME280;56017;48.680;8.998;2023-02-22T10:19:21;96390;;;16.3;72.5
68965;BME280;56017;48.680;8.998;2023-02-22T10:21:56;96380;;;16.1;73.5
68965;BME280;56017;48.680;8.998;2023-02-22T10:24:25;96380;;;16.1;73.5
68965;BME280;56017;48.680;8.998;2023-02-22T10:26:53;96390;;;16.3;72.5
68965;BME280;56017;48.680;8.998;2023-02-22T10:29:31;96380;;;16.6;73
68965;BME280;56017;48.680;8.998;2023-02-22T10:31:56;96380;;;17.2;72
68965;BME280;56017;48.680;8.998;2023-02-22T10:34:26;96380;;;17.5;71.5
68965;BME280;56017;48.680;8.998;2023-02-22T10:36:58;96380;;;17.6;72
68965;BME280;56017;48.680;8.998;2023-02-22T10:39:35;96380;;;17.4;72
68965;BME280;56017;48.680;8.998;2023-02-22T10:42:00;96370;;;17.5;72.5
68965;BME280;56017;48.680;8.998;2023-02-22T10:47:08;96360;;;17.8;70
68965;BME280;56017;48.680;8.998;2023-02-22T10:49:33;96370;;;17.3;71
68965;BME280;56017;48.680;8.998;2023-02-22T10:52:13;96370;;;16.9;71.5
68965;BME280;56017;48.680;8.998;2023-02-22T10:54:33;96370;;;17.3;70
68965;BME280;56017;48.680;8.998;2023-02-22T10:57:10;96370;;;17.1;70.5
68965;BME280;56017;48.680;8.998;2023-02-22T10:59:35;96370;;;17.3;70.5
68965;BME280;56017;48.680;8.998;2023-02-22T11:02:17;96360;;;17.7;70.5
68965;BME280;56017;48.680;8.998;2023-02-22T11:04:45;96350;;;18.1;70
68965;BME280;56017;48.680;8.998;2023-02-22T11:07:17;96350;;;17.8;71
68965;BME280;56017;48.680;8.998;2023-02-22T11:09:47;96350;;;17.3;72
68965;BME280;56017;48.680;8.998;2023-02-22T11:14:40;96350;;;17.2;71.5
68965;BME280;56017;48.680;8.998;2023-02-22T11:17:21;96340;;;17.2;71.5
68965;BME280;56017;48.680;8.998;2023-02-22T11:19:46;96340;;;17.5;71.5
68965;BME280;56017;48.680;8.998;2023-02-22T11:22:22;96330;;;17.6;71.5
68965;BME280;56017;48.680;8.998;2023-02-22T11:24:46;96330;;;17.8;72
68965;BME280;56017;48.680;8.998;2023-02-22T11:27:25;96320;;;18.2;71.5
68965;BME280;56017;48.680;8.998;2023-02-22T11:29:47;96320;;;18.3;70
68965;BME280;56017;48.680;8.998;2023-02-22T11:32:23;96320;;;18;70
68965;BME280;56017;48.680;8.998;2023-02-22T11:34:48;96320;;;17.5;71
68965;BME280;56017;48.680;8.998;2023-02-22T11:37:29;96320;;;17.2;71.5
68965;BME280;56017;48.680;8.998;2023-02-22T11:40:21;96310;;;17.1;72
68965;BME280;56017;48.680;8.998;2023-02-22T11:42:28;96310;;;17.3;71.5
68965;BME280;56017;48.680;8.998;2023-02-22T11:45:23;96310;;;17.4;71.5
68965;BME280;56017;48.680;8.998;2023-02-22T11:47:29;96300;;;17.7;71
68965;BME280;56017;48.680;8.998;2023-02-22T11:49:54;96300;;;18;71
68965;BME280;56017;48.680;8.998;2023-02-22T11:52:32;96300;;;18.3;70.5
68965;BME280;56017;48.680;8.998;2023-02-22T11:55:30;96290;;;18.7;70.5
68965;BME280;56017;48.680;8.998;2023-02-22T11:57:38;96290;;;19.1;70
68965;BME280;56017;48.680;8.998;2023-02-22T12:00:03;96290;;;19.1;70
68965;BME280;56017;48.680;8.998;2023-02-22T12:02:54;96290;;;19.2;69.5
68965;BME280;56017;48.680;8.998;2023-02-22T12:05:18;96280;;;19.3;69.5
68965;BME280;56017;48.680;8.998;2023-02-22T12:08:11;96280;;;18.8;70
68965;BME280;56017;48.680;8.998;2023-02-22T12:10:39;96280;;;18.6;70.5
68965;BME280;56017;48.680;8.998;2023-02-22T12:12:43;96280;;;18.9;70.5
68965;BME280;56017;48.680;8.998;2023-02-22T12:15:14;96270;;;19.2;70
68965;BME280;56017;48.680;8.998;2023-02-22T12:17:46;96270;;;19.5;70
68965;BME280;56017;48.680;8.998;2023-02-22T12:20:22;96270;;;19.9;69.5
68965;BME280;56017;48.680;8.998;2023-02-22T12:22:46;96270;;;19.8;70
68965;BME280;56017;48.680;8.998;2023-02-22T12:25:15;96270;;;20;70
68965;BME280;56017;48.680;8.998;2023-02-22T12:27:47;96270;;;19.9;69.5
68965;BME280;56017;48.680;8.998;2023-02-22T12:30:13;96270;;;19.9;70
68965;BME280;56017;48.680;8.998;2023-02-22T12:32:49;96270;;;20.1;69.5
68965;BME280;56017;48.680;8.998;2023-02-22T12:35:27;96260;;;20.7;68.5
68965;BME280;56017;48.680;8.998;2023-02-22T12:37:51;96260;;;21;67.5
68965;BME280;56017;48.680;8.998;2023-02-22T12:40:47;96260;;;22.3;65
68965;BME280;56017;48.680;8.998;2023-02-22T12:42:54;96250;;;23;64
68965;BME280;56017;48.680;8.998;2023-02-22T12:45:20;96250;;;23.2;63.5
68965;BME280;56017;48.680;8.998;2023-02-22T12:47:58;96250;;;23.2;65
68965;BME280;56017;48.680;8.998;2023-02-22T12:50:19;96250;;;23.1;66.5
68965;BME280;56017;48.680;8.998;2023-02-22T12:52:56;96250;;;23.1;67
68965;BME280;56017;48.680;8.998;2023-02-22T12:55:21;96260;;;23;67
68965;BME280;56017;48.680;8.998;2023-02-22T12:58:00;96260;;;22.7;69
68965;BME280;56017;48.680;8.998;2023-02-22T13:00:40;96250;;;22.3;67.5
68965;BME280;56017;48.680;8.998;2023-02-22T13:03:00;96250;;;21.9;69.5
68965;BME280;56017;48.680;8.998;2023-02-22T13:05:23;96250;;;21.9;69
68965;BME280;56017;48.680;8.998;2023-02-22T13:08:04;96250;;;21.7;69
68965;BME280;56017;48.680;8.998;2023-02-22T13:13:03;96250;;;20.8;70
68965;BME280;56017;48.680;8.998;2023-02-22T13:15:38;96250;;;20.3;70.5
68965;BME280;56017;48.680;8.998;2023-02-22T13:20:45;96250;;;19.2;71.5
68965;BME280;56017;48.680;8.998;2023-02-22T13:30:42;96260;;;17.9;73.5
68965;BME280;56017;48.680;8.998;2023-02-22T13:50:57;96250;;;18;71.5
68965;BME280;56017;48.680;8.998;2023-02-22T13:55:52;96250;;;19;70.5
68965;BME280;56017;48.680;8.998;2023-02-22T14:00:53;96250;;;19.8;69
68965;BME280;56017;48.680;8.998;2023-02-22T14:05:53;96250;;;19.8;69.5
68965;BME280;56017;48.680;8.998;2023-02-22T14:10:56;96260;;;19;70.5
68965;BME280;56017;48.680;8.998;2023-02-22T14:16:24;96250;;;17.9;72
68965;BME280;56017;48.680;8.998;2023-02-22T14:21:07;96260;;;18.5;71.5
68965;BME280;56017;48.680;8.998;2023-02-22T14:26:20;96260;;;18.9;70.5
68965;BME280;56017;48.680;8.998;2023-02-22T14:31:04;96250;;;18.4;71
68965;BME280;56017;48.680;8.998;2023-02-22T14:36:05;96250;;;19.5;69.5
68965;BME280;56017;48.680;8.998;2023-02-22T14:41:07;96250;;;19.5;70
68965;BME280;56017;48.680;8.998;2023-02-22T14:46:09;96250;;;19.7;69
68965;BME280;56017;48.680;8.998;2023-02-22T14:51:14;96240;;;19.8;68
68965;BME280;56017;48.680;8.998;2023-02-22T14:56:14;96240;;;19.8;69.5
68965;BME280;56017;48.680;8.998;2023-02-22T15:01:19;96240;;;20.4;68
68965;BME280;56017;48.680;8.998;2023-02-22T15:06:19;96240;;;19.6;68.5
68965;BME280;56017;48.680;8.998;2023-02-22T15:11:23;96240;;;19.6;68.5
68965;BME280;56017;48.680;8.998;2023-02-22T15:13:53;96240;;;19.3;69.5
68965;BME280;56017;48.680;8.998;2023-02-22T15:16:21;96240;;;19.2;69.5
68965;BME280;56017;48.680;8.998;2023-02-22T15:21:24;96240;;;18.8;69.5
68965;BME280;56017;48.680;8.998;2023-02-22T15:23:57;96240;;;18.6;70
68965;BME280;56017;48.680;8.998;2023-02-22T15:26:40;96240;;;18.7;70
68965;BME280;56017;48.680;8.998;2023-02-22T15:31:31;96250;;;17.7;71
68965;BME280;56017;48.680;8.998;2023-02-22T15:34:17;96250;;;17.2;71.5
68965;BME280;56017;48.680;8.998;2023-02-22T15:36:29;96260;;;16.7;72
68965;BME280;56017;48.680;8.998;2023-02-22T15:41:31;96260;;;16.1;72.5
68965;BME280;56017;48.680;8.998;2023-02-22T15:46:33;96260;;;15.8;72.5
68965;BME280;56017;48.680;8.998;2023-02-22T15:51:35;96260;;;15.5;72.5
68965;BME280;56017;48.680;8.998;2023-02-22T15:56:36;96260;;;15.3;72.5
68965;BME280;56017;48.680;8.998;2023-02-22T16:01:39;96260;;;15.2;72.5
68965;BME280;56017;48.680;8.998;2023-02-22T16:06:40;96270;;;14.8;72.5
68965;BME280;56017;48.680;8.998;2023-02-22T16:11:43;96270;;;14.5;73
68965;BME280;56017;48.680;8.998;2023-02-22T16:16:44;96270;;;14.3;73
68965;BME280;56017;48.680;8.998;2023-02-22T16:21:50;96270;;;14.1;73
68965;BME280;56017;48.680;8.998;2023-02-22T16:27:00;96280;;;14;73
68965;BME280;56017;48.680;8.998;2023-02-22T16:29:24;96280;;;13.9;73
68965;BME280;56017;48.680;8.998;2023-02-22T16:31:50;96280;;;13.9;73
68965;BME280;56017;48.680;8.998;2023-02-22T16:41:56;96270;;;13.7;73
68965;BME280;56017;48.680;8.998;2023-02-22T16:46:57;96280;;;13.6;73
68965;BME280;56017;48.680;8.998;2023-02-22T16:51:58;96280;;;13.4;73
68965;BME280;56017;48.680;8.998;2023-02-22T16:57:00;96290;;;13.2;73
68965;BME280;56017;48.680;8.998;2023-02-22T17:02:02;96290;;;13.2;73
68965;BME280;56017;48.680;8.998;2023-02-22T17:07:04;96290;;;13;72.5
68965;BME280;56017;48.680;8.998;2023-02-22T17:12:06;96300;;;13;72.5
68965;BME280;56017;48.680;8.998;2023-02-22T17:14:37;96300;;;13;72.5
68965;BME280;56017;48.680;8.998;2023-02-22T17:17:08;96300;;;13;72.5
68965;BME280;56017;48.680;8.998;2023-02-22T17:19:39;96310;;;13;72
68965;BME280;56017;48.680;8.998;2023-02-22T17:22:15;96310;;;13;72
68965;BME280;56017;48.680;8.998;2023-02-22T17:29:42;96310;;;12.9;72.5
68965;BME280;56017;48.680;8.998;2023-02-22T17:32:07;96320;;;12.8;72.5
68965;BME280;56017;48.680;8.998;2023-02-22T17:34:44;96330;;;12.8;72.5
68965;BME280;56017;48.680;8.998;2023-02-22T17:37:09;96330;;;12.9;72
68965;BME280;56017;48.680;8.998;2023-02-22T17:42:11;96340;;;12.8;72
68965;BME280;56017;48.680;8.998;2023-02-22T17:44:48;96340;;;12.6;72
68965;BME280;56017;48.680;8.998;2023-02-22T17:47:13;96330;;;12.5;72.5
68965;BME280;56017;48.680;8.998;2023-02-22T17:49:50;96340;;;12.4;72.5
68965;BME280;56017;48.680;8.998;2023-02-22T17:52:15;96340;;;12.4;72.5
68965;BME280;56017;48.680;8.998;2023-02-22T17:54:52;96340;;;12.4;72.5
68965;BME280;56017;48.680;8.998;2023-02-22T17:57:17;96340;;;12.4;72.5
68965;BME280;56017;48.680;8.998;2023-02-22T17:59:54;96340;;;12.4;72.5
68965;BME280;56017;48.680;8.998;2023-02-22T18:02:19;96340;;;12.4;72.5
68965;BME280;56017;48.680;8.998;2023-02-22T18:04:56;96340;;;12.4;72.5
68965;BME280;56017;48.680;8.998;2023-02-22T18:07:20;96340;;;12.4;72.5
68965;BME280;56017;48.680;8.998;2023-02-22T18:09:58;96340;;;12.5;72.5
68965;BME280;56017;48.680;8.998;2023-02-22T18:12:22;96340;;;12.5;72.5
68965;BME280;56017;48.680;8.998;2023-02-22T18:15:00;96340;;;12.4;72.5
68965;BME280;56017;48.680;8.998;2023-02-22T18:17:24;96340;;;12.3;72.5
68965;BME280;56017;48.680;8.998;2023-02-22T18:20:03;96340;;;12.1;72.5
68965;BME280;56017;48.680;8.998;2023-02-22T18:22:26;96340;;;12;72.5
68965;BME280;56017;48.680;8.998;2023-02-22T18:25:04;96350;;;12;73
68965;BME280;56017;48.680;8.998;2023-02-22T18:27:28;96340;;;12.1;72.5
68965;BME280;56017;48.680;8.998;2023-02-22T18:30:06;96340;;;12.2;72.5
68965;BME280;56017;48.680;8.998;2023-02-22T18:32:30;96340;;;12.1;72.5
68965;BME280;56017;48.680;8.998;2023-02-22T18:35:08;96340;;;12.2;72.5
68965;BME280;56017;48.680;8.998;2023-02-22T18:37:32;96340;;;12.2;72
68965;BME280;56017;48.680;8.998;2023-02-22T18:40:10;96340;;;12.2;72
68965;BME280;56017;48.680;8.998;2023-02-22T18:42:35;96340;;;12.2;72
68965;BME280;56017;48.680;8.998;2023-02-22T18:45:12;96340;;;12.1;72.5
68965;BME280;56017;48.680;8.998;2023-02-22T18:47:37;96340;;;12;72.5
68965;BME280;56017;48.680;8.998;2023-02-22T18:50:14;96340;;;12;72.5
68965;BME280;56017;48.680;8.998;2023-02-22T18:52:38;96350;;;12;72.5
68965;BME280;56017;48.680;8.998;2023-02-22T18:55:17;96350;;;12;72.5
68965;BME280;56017;48.680;8.998;2023-02-22T18:57:40;96350;;;11.9;72.5
68965;BME280;56017;48.680;8.998;2023-02-22T19:00:18;96350;;;11.9;72.5
68965;BME280;56017;48.680;8.998;2023-02-22T19:02:42;96350;;;11.9;72.5
68965;BME280;56017;48.680;8.998;2023-02-22T19:05:20;96350;;;11.9;73
68965;BME280;56017;48.680;8.998;2023-02-22T19:07:44;96350;;;12.1;72.5
68965;BME280;56017;48.680;8.998;2023-02-22T19:10:22;96350;;;12.1;72.5
68965;BME280;56017;48.680;8.998;2023-02-22T19:12:46;96350;;;12;72.5
68965;BME280;56017;48.680;8.998;2023-02-22T19:15:24;96340;;;12;72.5
68965;BME280;56017;48.680;8.998;2023-02-22T19:17:48;96340;;;11.9;72.5
68965;BME280;56017;48.680;8.998;2023-02-22T19:20:19;96340;;;11.9;72.5
68965;BME280;56017;48.680;8.998;2023-02-22T19:22:50;96340;;;11.8;72.5
68965;BME280;56017;48.680;8.998;2023-02-22T19:25:28;96340;;;11.7;72.5
68965;BME280;56017;48.680;8.998;2023-02-22T19:27:52;96340;;;11.7;73
68965;BME280;56017;48.680;8.998;2023-02-22T19:30:29;96340;;;11.7;73
68965;BME280;56017;48.680;8.998;2023-02-22T19:32:54;96340;;;11.7;73
68965;BME280;56017;48.680;8.998;2023-02-22T19:37:56;96340;;;11.8;72.5
68965;BME280;56017;48.680;8.998;2023-02-22T19:40:35;96350;;;11.9;72.5
68965;BME280;56017;48.680;8.998;2023-02-22T19:42:58;96350;;;11.9;72.5
68965;BME280;56017;48.680;8.998;2023-02-22T19:45:29;96340;;;11.9;72.5
68965;BME280;56017;48.680;8.998;2023-02-22T19:48:00;96340;;;11.9;72.5
68965;BME280;56017;48.680;8.998;2023-02-22T19:50:37;96350;;;11.9;72.5
68965;BME280;56017;48.680;8.998;2023-02-22T19:53:02;96350;;;12;72.5
68965;BME280;56017;48.680;8.998;2023-02-22T19:55:39;96350;;;11.9;72.5
68965;BME280;56017;48.680;8.998;2023-02-22T19:58:04;96350;;;11.9;72
68965;BME280;56017;48.680;8.998;2023-02-22T20:00:41;96340;;;11.9;72
68965;BME280;56017;48.680;8.998;2023-02-22T20:03:06;96340;;;11.8;72
68965;BME280;56017;48.680;8.998;2023-02-22T20:05:38;96340;;;11.7;72.5
68965;BME280;56017;48.680;8.998;2023-02-22T20:08:08;96340;;;11.7;72
68965;BME280;56017;48.680;8.998;2023-02-22T20:10:39;96340;;;11.7;72
68965;BME280;56017;48.680;8.998;2023-02-22T20:13:10;96340;;;11.6;72
68965;BME280;56017;48.680;8.998;2023-02-22T20:15:47;96340;;;11.5;72.5
68965;BME280;56017;48.680;8.998;2023-02-22T20:18:11;96340;;;11.5;72.5
68965;BME280;56017;48.680;8.998;2023-02-22T20:20:49;96340;;;11.6;72
68965;BME280;56017;48.680;8.998;2023-02-22T20:23:14;96340;;;11.5;72
68965;BME280;56017;48.680;8.998;2023-02-22T20:25:52;96350;;;11.4;72.5
68965;BME280;56017;48.680;8.998;2023-02-22T20:28:15;96350;;;11.3;72.5
68965;BME280;56017;48.680;8.998;2023-02-22T20:33:18;96340;;;11.3;72.5
68965;BME280;56017;48.680;8.998;2023-02-22T20:35:55;96340;;;11.2;72.5
68965;BME280;56017;48.680;8.998;2023-02-22T20:38:19;96340;;;11.1;72.5
68965;BME280;56017;48.680;8.998;2023-02-22T20:40:57;96350;;;11;72.5
68965;BME280;56017;48.680;8.998;2023-02-22T20:43:21;96350;;;10.9;72.5
68965;BME280;56017;48.680;8.998;2023-02-22T20:48:23;96350;;;10.9;73
68965;BME280;56017;48.680;8.998;2023-02-22T20:50:54;96350;;;11;72.5
68965;BME280;56017;48.680;8.998;2023-02-22T20:53:25;96350;;;11;72.5
68965;BME280;56017;48.680;8.998;2023-02-22T20:56:03;96350;;;10.9;72.5
68965;BME280;56017;48.680;8.998;2023-02-22T20:58:27;96350;;;10.8;72
68965;BME280;56017;48.680;8.998;2023-02-22T21:01:02;96360;;;10.7;72.5
68965;BME280;56017;48.680;8.998;2023-02-22T21:03:31;96360;;;10.6;72.5
68965;BME280;56017;48.680;8.998;2023-02-22T21:06:02;96360;;;10.4;72.5
68965;BME280;56017;48.680;8.998;2023-02-22T21:08:31;96360;;;10.3;72.5
68965;BME280;56017;48.680;8.998;2023-02-22T21:11:11;96360;;;10.3;72.5
68965;BME280;56017;48.680;8.998;2023-02-22T21:13:33;96360;;;10.2;72.5
68965;BME280;56017;48.680;8.998;2023-02-22T21:16:15;96360;;;10.2;72.5
68965;BME280;56017;48.680;8.998;2023-02-22T21:18:35;96360;;;10.2;72
68965;BME280;56017;48.680;8.998;2023-02-22T21:21:13;96360;;;10.2;72.5
68965;BME280;56017;48.680;8.998;2023-02-22T21:23:39;96360;;;10.2;72.5
68965;BME280;56017;48.680;8.998;2023-02-22T21:28:39;96370;;;10.1;72.5
68965;BME280;56017;48.680;8.998;2023-02-22T21:31:17;96360;;;10;72.5
68965;BME280;56017;48.680;8.998;2023-02-22T21:33:41;96360;;;10;72.5
68965;BME280;56017;48.680;8.998;2023-02-22T21:36:19;96360;;;10;72.5
68965;BME280;56017;48.680;8.998;2023-02-22T21:38:43;96360;;;9.9;72.5
68965;BME280;56017;48.680;8.998;2023-02-22T21:41:14;96360;;;9.9;72.5
68965;BME280;56017;48.680;8.998;2023-02-22T21:43:47;96360;;;9.8;72.5
68965;BME280;56017;48.680;8.998;2023-02-22T21:46:16;96360;;;9.8;72.5
68965;BME280;56017;48.680;8.998;2023-02-22T21:48:46;96360;;;9.8;72
68965;BME280;56017;48.680;8.998;2023-02-22T21:53:48;96350;;;9.7;71.5
68965;BME280;56017;48.680;8.998;2023-02-22T21:56:19;96350;;;9.7;71.5
68965;BME280;56017;48.680;8.998;2023-02-22T21:58:53;96350;;;9.7;72
68965;BME280;56017;48.680;8.998;2023-02-22T22:01:20;96350;;;9.7;72
68965;BME280;56017;48.680;8.998;2023-02-22T22:03:51;96350;;;9.9;72
68965;BME280;56017;48.680;8.998;2023-02-22T22:06:30;96350;;;10;72
68965;BME280;56017;48.680;8.998;2023-02-22T22:08:54;96350;;;10.1;71.5
68965;BME280;56017;48.680;8.998;2023-02-22T22:11:31;96350;;;10.1;71.5
68965;BME280;56017;48.680;8.998;2023-02-22T22:13:55;96350;;;10.1;71.5
68965;BME280;56017;48.680;8.998;2023-02-22T22:16:26;96350;;;10.1;72
68965;BME280;56017;48.680;8.998;2023-02-22T22:18:57;96350;;;10.1;72
68965;BME280;56017;48.680;8.998;2023-02-22T22:21:35;96350;;;10.2;72.5
68965;BME280;56017;48.680;8.998;2023-02-22T22:23:59;96350;;;10.2;72.5
68965;BME280;56017;48.680;8.998;2023-02-22T22:26:37;96350;;;10.4;72
68965;BME280;56017;48.680;8.998;2023-02-22T22:29:01;96350;;;10.5;71.5
68965;BME280;56017;48.680;8.998;2023-02-22T22:31:39;96350;;;10.4;71.5
68965;BME280;56017;48.680;8.998;2023-02-22T22:34:03;96350;;;10.4;72
68965;BME280;56017;48.680;8.998;2023-02-22T22:36:40;96350;;;10.6;71.5
68965;BME280;56017;48.680;8.998;2023-02-22T22:39:05;96340;;;10.5;71.5
68965;BME280;56017;48.680;8.998;2023-02-22T22:41:43;96340;;;10.4;71.5
68965;BME280;56017;48.680;8.998;2023-02-22T22:44:07;96340;;;10.4;71.5
68965;BME280;56017;48.680;8.998;2023-02-22T22:46:45;96340;;;10.4;72
68965;BME280;56017;48.680;8.998;2023-02-22T22:49:10;96340;;;10.4;71.5
68965;BME280;56017;48.680;8.998;2023-02-22T22:51:46;96340;;;10.4;71
68965;BME280;56017;48.680;8.998;2023-02-22T22:54:11;96340;;;10.3;71
68965;BME280;56017;48.680;8.998;2023-02-22T22:56:48;96340;;;10.2;71.5
68965;BME280;56017;48.680;8.998;2023-02-22T22:59:13;96340;;;10.2;71.5
68965;BME280;56017;48.680;8.998;2023-02-22T23:01:50;96350;;;10.3;71.5
68965;BME280;56017;48.680;8.998;2023-02-22T23:04:15;96340;;;10.4;71.5
68965;BME280;56017;48.680;8.998;2023-02-22T23:06:53;96340;;;10.4;71.5
68965;BME280;56017;48.680;8.998;2023-02-22T23:09:20;96340;;;10.4;71.5
68965;BME280;56017;48.680;8.998;2023-02-22T23:11:50;96340;;;10.4;71.5
68965;BME280;56017;48.680;8.998;2023-02-22T23:14:24;96340;;;10.3;72
68965;BME280;56017;48.680;8.998;2023-02-22T23:16:57;96340;;;10.3;72
68965;BME280;56017;48.680;8.998;2023-02-22T23:19:21;96340;;;10.3;72
68965;BME280;56017;48.680;8.998;2023-02-22T23:21:52;96340;;;10.4;72
68965;BME280;56017;48.680;8.998;2023-02-22T23:24:23;96340;;;10.4;72
68965;BME280;56017;48.680;8.998;2023-02-22T23:27:00;96340;;;10.5;71.5
68965;BME280;56017;48.680;8.998;2023-02-22T23:29:25;96340;;;10.4;72
68965;BME280;56017;48.680;8.998;2023-02-22T23:31:56;96340;;;10.4;72
68965;BME280;56017;48.680;8.998;2023-02-22T23:34:27;96340;;;10.4;72
68965;BME280;56017;48.680;8.998;2023-02-22T23:37:04;96340;;;10.4;72.5
68965;BME280;56017;48.680;8.998;2023-02-22T23:39:28;96340;;;10.5;72
68965;BME280;56017;48.680;8.998;2023-02-22T23:42:06;96340;;;10.6;71.5
68965;BME280;56017;48.680;8.998;2023-02-22T23:44:30;96340;;;10.6;71
68965;BME280;56017;48.680;8.998;2023-02-22T23:49:32;96340;;;10.4;72
68965;BME280;56017;48.680;8.998;2023-02-22T23:52:10;96350;;;10.5;71.5
68965;BME280;56017;48.680;8.998;2023-02-22T23:54:41;96340;;;10.7;71.5
68965;BME280;56017;48.680;8.998;2023-02-22T23:57:12;96340;;;10.7;71
68965;BME280;56017;48.680;8.998;2023-02-22T23:59:36;96340;;;10.5;71
